Time;durP1;ratioP1;P1;durP2;ratioP2;P2;SDS_P1;SDS_P2;PMS_P1;PMS_P2;Temp;Humidity;BMP_temperature;BMP_pressure;BME280_temperature;BME280_humidity;BME280_pressure;Samples;Min_cycle;Max_cycle;Signal;HPM_P1;HPM_P2
2021/05/20 00:02:09;;;;;;;6.10;3.90;;;333.30;2329.60;;;;;;5052359;28;20021;-72
2021/05/20 00:04:35;;;;;;;5.40;3.92;;;333.30;2329.60;;;;;;5052414;28;20028;-72
2021/05/20 00:07:01;;;;;;;5.72;4.32;;;333.30;2329.60;;;;;;5052270;28;20028;-72
2021/05/20 00:09:26;;;;;;;7.60;4.90;;;333.30;2329.60;;;;;;5052377;28;20096;-72
2021/05/20 00:11:52;;;;;;;7.93;4.60;;;333.30;2329.60;;;;;;5050706;28;20108;-71
2021/05/20 00:14:18;;;;;;;6.70;5.18;;;333.40;2329.60;;;;;;5052448;28;20480;-72
2021/05/20 00:16:44;;;;;;;5.80;4.68;;;333.40;2329.60;;;;;;5052035;28;20044;-72
2021/05/20 00:19:09;;;;;;;8.10;5.68;;;333.40;2329.60;;;;;;5052152;28;20024;-71
2021/05/20 00:21:35;;;;;;;7.93;5.32;;;333.40;2329.60;;;;;;5051955;28;20029;-71
2021/05/20 00:24:01;;;;;;;8.02;5.35;;;333.40;2329.60;;;;;;5052224;28;20433;-71
2021/05/20 00:26:27;;;;;;;7.95;5.45;;;333.50;2329.60;;;;;;5052072;28;20025;-71
2021/05/20 00:28:53;;;;;;;8.00;5.85;;;333.40;2329.60;;;;;;5051826;28;20483;-71
2021/05/20 00:31:18;;;;;;;9.77;7.40;;;333.50;2329.60;;;;;;5052197;28;20025;-72
2021/05/20 00:33:44;;;;;;;11.05;7.63;;;333.50;2329.60;;;;;;5052155;28;20029;-72
2021/05/20 00:36:11;;;;;;;7.60;5.68;;;333.60;2329.60;;;;;;5052067;28;20033;-71
2021/05/20 00:38:38;;;;;;;6.93;5.18;;;333.70;2329.60;;;;;;5052203;28;20036;-72
2021/05/20 00:41:04;;;;;;;6.53;4.85;;;333.70;2329.60;;;;;;5051987;28;20030;-72
2021/05/20 00:43:30;;;;;;;5.60;4.35;;;333.70;2329.60;;;;;;5051922;28;20475;-72
2021/05/20 00:45:56;;;;;;;6.43;4.20;;;358.40;2329.60;;;;;;5051814;28;20096;-72
2021/05/20 00:48:22;;;;;;;6.50;4.45;;;358.40;2329.60;;;;;;5051901;28;20032;-72
2021/05/20 00:50:48;;;;;;;5.35;4.10;;;358.40;2329.60;;;;;;5051921;28;20040;-72
2021/05/20 00:53:16;;;;;;;6.43;4.22;;;358.40;2329.60;;;;;;5051796;28;20053;-71
2021/05/20 00:55:42;;;;;;;6.18;4.10;;;333.70;2329.60;;;;;;5051783;28;20040;-71
2021/05/20 00:58:09;;;;;;;6.85;4.47;;;333.70;2329.60;;;;;;5051751;28;20039;-71
2021/05/20 01:00:36;;;;;;;6.25;4.30;;;358.40;2329.60;;;;;;5051676;28;20021;-72
2021/05/20 01:03:03;;;;;;;6.43;4.80;;;358.40;2329.60;;;;;;5051750;28;20568;-71
2021/05/20 01:05:28;;;;;;;6.00;4.18;;;358.40;2329.60;;;;;;5051495;28;20078;-71
2021/05/20 01:07:55;;;;;;;5.95;4.20;;;333.70;2329.60;;;;;;5051872;28;20021;-71
2021/05/20 01:10:21;;;;;;;5.45;4.10;;;333.70;2329.60;;;;;;5051606;28;20021;-71
2021/05/20 01:12:47;;;;;;;6.03;4.05;;;333.70;2329.60;;;;;;5051814;28;20021;-71
2021/05/20 01:15:29;;;;;;;5.65;4.05;;;333.70;2329.60;;;;;;5051644;28;20506;-72
2021/05/20 01:18:00;;;;;;;6.20;4.05;;;358.40;2329.60;;;;;;5038742;28;20472;-72
2021/05/20 01:20:34;;;;;;;6.03;4.25;;;358.40;2329.60;;;;;;5051450;28;20017;-71
2021/05/20 01:23:09;;;;;;;5.45;4.07;;;358.40;2329.60;;;;;;5051771;28;20097;-71
2021/05/20 01:25:36;;;;;;;6.22;4.38;;;358.40;2329.60;;;;;;5051913;28;20032;-71
2021/05/20 01:28:04;;;;;;;6.38;4.68;;;358.40;2329.60;;;;;;5051697;28;20087;-71
2021/05/20 01:30:32;;;;;;;5.75;3.97;;;333.70;2329.60;;;;;;5051583;28;20124;-72
2021/05/20 01:32:58;;;;;;;5.95;4.22;;;358.40;2329.60;;;;;;5051664;28;20044;-71
2021/05/20 01:35:24;;;;;;;6.20;4.03;;;333.70;2329.60;;;;;;5052080;28;20468;-71
2021/05/20 01:37:52;;;;;;;7.38;4.60;;;333.70;2329.60;;;;;;5051364;28;20013;-72
2021/05/20 01:40:17;;;;;;;7.85;4.53;;;333.70;2329.60;;;;;;5051598;28;20159;-71
2021/05/20 01:42:43;;;;;;;6.15;4.35;;;333.70;2329.60;;;;;;5055123;28;20104;-71
2021/05/20 01:45:10;;;;;;;5.82;4.22;;;333.70;2329.60;;;;;;5054840;28;20043;-71
2021/05/20 01:47:39;;;;;;;6.90;4.55;;;333.70;2329.60;;;;;;5055229;28;20483;-72
2021/05/20 01:50:05;;;;;;;6.85;4.90;;;333.70;2329.60;;;;;;5054954;28;20021;-72
2021/05/20 01:52:31;;;;;;;5.72;4.40;;;333.70;2329.60;;;;;;5054953;28;20053;-72
2021/05/20 01:54:57;;;;;;;6.38;4.68;;;333.70;2329.60;;;;;;5054591;28;20025;-72
2021/05/20 01:57:23;;;;;;;8.57;4.70;;;358.40;2329.60;;;;;;5054797;28;20029;-73
2021/05/20 01:59:48;;;;;;;6.72;4.80;;;333.70;2329.60;;;;;;5054628;28;20028;-72
2021/05/20 02:02:14;;;;;;;6.00;4.90;;;333.70;2329.60;;;;;;5054625;28;20033;-73
2021/05/20 02:04:40;;;;;;;6.15;4.40;;;333.70;2329.60;;;;;;5054767;28;20025;-72
2021/05/20 02:07:05;;;;;;;6.70;4.88;;;333.70;2329.60;;;;;;5054504;28;20017;-72
2021/05/20 02:09:31;;;;;;;7.15;5.07;;;333.70;2329.60;;;;;;5054591;28;20021;-72
2021/05/20 02:11:57;;;;;;;7.90;5.25;;;333.70;2329.60;;;;;;5054280;28;20021;-71
2021/05/20 02:14:23;;;;;;;8.10;5.70;;;358.40;2329.60;;;;;;5054582;28;20032;-72
2021/05/20 02:16:48;;;;;;;8.30;5.95;;;333.70;2329.60;;;;;;5054586;28;20472;-72
2021/05/20 02:19:14;;;;;;;8.57;6.05;;;358.40;2329.60;;;;;;5054363;28;20020;-71
2021/05/20 02:21:40;;;;;;;9.57;6.57;;;358.40;2329.60;;;;;;5054643;28;20079;-72
2021/05/20 02:24:06;;;;;;;10.50;6.45;;;333.70;2329.60;;;;;;5054264;28;20395;-71
2021/05/20 02:26:32;;;;;;;9.20;6.03;;;333.70;2329.60;;;;;;5054351;28;20057;-71
2021/05/20 02:28:58;;;;;;;7.93;5.85;;;333.70;2329.60;;;;;;5054238;28;20053;-74
2021/05/20 02:31:24;;;;;;;9.10;6.30;;;333.70;2329.60;;;;;;5054072;28;20376;-72
2021/05/20 02:33:50;;;;;;;8.98;5.72;;;358.40;2329.60;;;;;;5054131;28;20032;-72
2021/05/20 02:36:16;;;;;;;11.07;6.38;;;333.70;2329.60;;;;;;5054080;28;21667;-72
2021/05/20 02:38:41;;;;;;;9.07;5.97;;;333.70;2329.60;;;;;;5054331;28;20029;-72
2021/05/20 02:41:07;;;;;;;8.68;5.65;;;333.70;2329.60;;;;;;5054060;28;20059;-70
2021/05/20 02:43:33;;;;;;;8.40;5.57;;;333.60;2329.60;;;;;;5054009;28;20387;-74
2021/05/20 02:46:00;;;;;;;10.20;5.78;;;333.60;2329.60;;;;;;5053838;28;20033;-73
2021/05/20 02:48:26;;;;;;;7.45;5.22;;;333.60;2329.60;;;;;;5053761;28;20021;-71
2021/05/20 02:50:52;;;;;;;7.88;5.63;;;333.60;2329.60;;;;;;5053711;28;20104;-72
2021/05/20 02:53:18;;;;;;;7.70;5.35;;;333.60;2329.60;;;;;;5014014;28;20133;-71
2021/05/20 02:55:43;;;;;;;8.35;5.63;;;333.60;2329.60;;;;;;5014010;28;20026;-71
2021/05/20 02:58:09;;;;;;;9.38;6.03;;;333.60;2329.60;;;;;;5013902;28;20496;-71
2021/05/20 03:00:38;;;;;;;7.88;5.63;;;333.60;2329.60;;;;;;5013902;28;20030;-71
2021/05/20 03:03:04;;;;;;;8.35;6.20;;;333.60;2329.60;;;;;;5013965;28;20582;-71
2021/05/20 03:05:30;;;;;;;9.13;5.63;;;333.50;2329.60;;;;;;5014096;28;20049;-71
2021/05/20 03:07:56;;;;;;;8.68;5.57;;;333.50;2329.60;;;;;;5013852;28;20484;-71
2021/05/20 03:10:22;;;;;;;7.20;5.53;;;333.50;2329.60;;;;;;5013651;28;20026;-71
2021/05/20 03:12:48;;;;;;;9.25;6.13;;;333.40;2329.60;;;;;;5013769;28;20431;-71
2021/05/20 03:15:14;;;;;;;8.05;5.07;;;333.40;2329.60;;;;;;5013562;28;20021;-72
2021/05/20 03:17:40;;;;;;;7.63;5.20;;;333.40;2329.60;;;;;;5013970;28;20025;-71
2021/05/20 03:20:07;;;;;;;6.82;4.90;;;333.50;2329.60;;;;;;5013583;28;20044;-71
2021/05/20 03:22:33;;;;;;;5.20;4.00;;;333.40;2329.60;;;;;;5013653;28;20041;-71
2021/05/20 03:24:59;;;;;;;6.63;4.10;;;333.40;2329.60;;;;;;5013517;28;20023;-72
2021/05/20 03:27:25;;;;;;;7.88;4.28;;;333.40;2329.60;;;;;;5012308;28;20022;-71
2021/05/20 03:29:51;;;;;;;6.00;4.10;;;333.40;2329.60;;;;;;5013376;28;20030;-71
2021/05/20 03:32:17;;;;;;;5.25;4.30;;;333.30;2329.60;;;;;;5013388;28;20072;-72
2021/05/20 03:34:42;;;;;;;7.05;4.30;;;333.20;2329.60;;;;;;5013497;28;20026;-71
2021/05/20 03:37:08;;;;;;;8.13;4.60;;;333.20;2329.60;;;;;;5013260;28;20030;-71
2021/05/20 03:39:34;;;;;;;6.85;4.38;;;333.20;2329.60;;;;;;5013788;28;20038;-71
2021/05/20 03:42:01;;;;;;;5.57;4.20;;;333.20;2329.60;;;;;;5013244;28;20029;-72
2021/05/20 03:44:28;;;;;;;6.82;4.40;;;333.20;2329.60;;;;;;5013114;28;20037;-72
2021/05/20 03:46:54;;;;;;;7.75;4.40;;;333.20;2329.60;;;;;;5013144;28;20014;-72
2021/05/20 03:49:20;;;;;;;7.28;4.60;;;333.20;2329.60;;;;;;5013212;28;20381;-72
2021/05/20 03:51:45;;;;;;;6.43;4.05;;;333.30;2329.60;;;;;;5027267;28;20066;-71
2021/05/20 03:54:11;;;;;;;7.68;4.15;;;333.30;2329.60;;;;;;5052674;28;20037;-71
2021/05/20 03:56:37;;;;;;;6.40;4.30;;;333.30;2329.60;;;;;;5052472;28;20021;-71
2021/05/20 03:59:03;;;;;;;6.35;4.47;;;333.30;2329.60;;;;;;5052646;28;20064;-71
2021/05/20 04:01:29;;;;;;;6.45;4.50;;;333.30;2329.60;;;;;;5052424;28;20040;-71
2021/05/20 04:03:55;;;;;;;6.30;4.32;;;333.30;2329.60;;;;;;5052056;28;20021;-71
2021/05/20 04:06:20;;;;;;;7.32;4.07;;;333.30;2329.60;;;;;;5052617;28;20029;-72
2021/05/20 04:08:46;;;;;;;7.03;4.28;;;333.30;2329.60;;;;;;5052264;28;20013;-71
2021/05/20 04:11:12;;;;;;;6.00;4.00;;;333.30;2329.60;;;;;;5052400;28;20458;-71
2021/05/20 04:13:40;;;;;;;6.07;4.38;;;333.20;2329.60;;;;;;5052315;28;20465;-71
2021/05/20 04:16:07;;;;;;;6.22;4.25;;;333.20;2329.60;;;;;;5052293;28;20060;-72
2021/05/20 04:18:33;;;;;;;6.60;4.13;;;333.30;2329.60;;;;;;5052117;28;20111;-70
2021/05/20 04:21:00;;;;;;;7.07;4.20;;;333.30;2329.60;;;;;;5051286;28;20021;-71
2021/05/20 04:23:26;;;;;;;6.10;3.95;;;333.30;2329.60;;;;;;5052142;28;20021;-71
2021/05/20 04:25:53;;;;;;;7.25;4.13;;;333.30;2329.60;;;;;;5034416;28;20028;-72
2021/05/20 04:28:19;;;;;;;6.07;4.35;;;333.30;2329.60;;;;;;5052316;28;20444;-71
2021/05/20 04:30:46;;;;;;;5.70;4.10;;;333.40;2329.60;;;;;;5051999;28;20471;-71
2021/05/20 04:33:12;;;;;;;6.35;4.38;;;333.30;2329.60;;;;;;5052065;28;20052;-71
2021/05/20 04:35:38;;;;;;;6.38;4.40;;;333.30;2329.60;;;;;;5052428;28;20025;-71
2021/05/20 04:38:05;;;;;;;6.15;4.57;;;333.30;2329.60;;;;;;5052536;28;20029;-71
2021/05/20 04:40:32;;;;;;;6.25;4.40;;;333.40;2329.60;;;;;;5051928;28;20029;-71
2021/05/20 04:42:58;;;;;;;6.75;4.50;;;333.40;2329.60;;;;;;5051951;28;20083;-72
2021/05/20 04:45:24;;;;;;;7.03;4.30;;;333.40;2329.60;;;;;;5052263;28;20104;-72
2021/05/20 04:47:50;;;;;;;6.47;4.30;;;333.40;2329.60;;;;;;5052008;28;20547;-71
2021/05/20 04:50:17;;;;;;;5.40;3.67;;;333.40;2329.60;;;;;;5051954;28;20017;-72
2021/05/20 04:52:43;;;;;;;5.97;3.88;;;333.40;2329.60;;;;;;5051789;28;20079;-71
2021/05/20 04:55:10;;;;;;;5.53;3.78;;;333.40;2329.60;;;;;;5051804;28;20023;-71
2021/05/20 04:57:36;;;;;;;5.53;3.80;;;333.40;2329.60;;;;;;5051801;28;20025;-72
2021/05/20 05:00:04;;;;;;;5.30;3.65;;;333.40;2329.60;;;;;;5051820;28;20029;-73
2021/05/20 05:02:30;;;;;;;6.40;4.18;;;333.50;2329.60;;;;;;5051698;28;20033;-71
2021/05/20 05:04:56;;;;;;;7.32;4.22;;;333.50;2329.60;;;;;;5051725;28;20029;-74
2021/05/20 05:07:22;;;;;;;7.05;4.32;;;333.60;2329.60;;;;;;5051957;28;20488;-72
2021/05/20 05:09:47;;;;;;;6.93;4.43;;;333.70;2329.60;;;;;;5051709;28;20056;-73
2021/05/20 05:12:13;;;;;;;7.47;5.05;;;333.70;2329.60;;;;;;5051584;28;20479;-75
2021/05/20 05:14:39;;;;;;;9.10;7.10;;;333.70;2329.60;;;;;;5051797;28;20448;-75
2021/05/20 05:17:04;;;;;;;7.60;5.80;;;358.40;2329.60;;;;;;5036538;28;20040;-72
2021/05/20 05:19:30;;;;;;;7.85;4.45;;;358.50;2329.60;;;;;;5055133;28;20104;-73
2021/05/20 05:21:59;;;;;;;9.60;4.80;;;358.60;2329.60;;;;;;5055535;28;20025;-72
2021/05/20 05:24:25;;;;;;;13.85;9.70;;;358.70;2329.60;;;;;;5055516;28;20043;-72
2021/05/20 05:26:51;;;;;;;9.57;5.90;;;358.80;2329.60;;;;;;5055509;28;20024;-71
2021/05/20 05:29:17;;;;;;;8.45;5.10;;;359.10;2329.60;;;;;;5055335;28;20025;-70
2021/05/20 05:31:42;;;;;;;9.15;5.68;;;359.20;2329.60;;;;;;5055259;28;20074;-72
2021/05/20 05:34:08;;;;;;;7.82;5.53;;;384.10;2329.60;;;;;;5055192;28;20480;-72
2021/05/20 05:36:34;;;;;;;9.98;7.38;;;384.30;2329.60;;;;;;5055209;28;20030;-72
2021/05/20 05:39:00;;;;;;;8.90;6.38;;;384.30;2329.60;;;;;;5055336;28;20033;-71
2021/05/20 05:41:25;;;;;;;5.90;4.18;;;384.30;2329.60;;;;;;5054933;28;20021;-73
2021/05/20 05:43:51;;;;;;;5.93;4.13;;;384.30;2329.60;;;;;;5055105;28;20083;-72
2021/05/20 05:46:17;;;;;;;5.50;3.42;;;384.20;2329.60;;;;;;5054950;28;20104;-71
2021/05/20 05:48:44;;;;;;;5.82;3.40;;;384.00;2329.60;;;;;;5054948;28;20028;-72
2021/05/20 05:51:12;;;;;;;5.88;3.60;;;384.10;2329.60;;;;;;5055154;28;20382;-73
2021/05/20 05:53:38;;;;;;;5.35;3.80;;;384.00;2329.60;;;;;;5054817;28;20032;-72
2021/05/20 05:56:04;;;;;;;5.10;3.60;;;384.00;2329.60;;;;;;5055139;28;20104;-72
2021/05/20 05:58:30;;;;;;;5.63;3.50;;;384.10;2329.60;;;;;;5054878;28;20096;-72
2021/05/20 06:00:56;;;;;;;6.32;3.65;;;384.20;2329.60;;;;;;5054841;28;20132;-72
2021/05/20 06:03:23;;;;;;;6.10;3.83;;;384.40;2329.60;;;;;;5054565;28;20028;-71
2021/05/20 06:05:49;;;;;;;6.28;3.67;;;384.50;2329.60;;;;;;5054791;28;20098;-71
2021/05/20 06:08:15;;;;;;;5.78;3.67;;;384.80;2329.60;;;;;;5054704;28;20025;-71
2021/05/20 06:10:41;;;;;;;5.28;3.47;;;409.80;2355.20;;;;;;5054525;28;20025;-71
2021/05/20 06:13:06;;;;;;;5.03;3.00;;;410.10;2355.20;;;;;;5054641;28;20037;-73
2021/05/20 06:15:32;;;;;;;4.35;2.30;;;410.30;2355.20;;;;;;5036373;28;20029;-71
2021/05/20 06:17:58;;;;;;;3.50;2.10;;;410.40;2355.20;;;;;;5054336;28;20029;-75
2021/05/20 06:20:23;;;;;;;3.40;2.03;;;410.50;2355.20;;;;;;5054347;28;20025;-72
2021/05/20 06:22:49;;;;;;;3.03;2.13;;;410.40;2355.20;;;;;;5054112;28;20028;-72
2021/05/20 06:25:15;;;;;;;3.50;2.10;;;435.20;2355.20;;;;;;5054389;28;20028;-71
2021/05/20 06:27:41;;;;;;;3.17;2.17;;;435.90;2355.20;;;;;;5053677;28;20057;-71
2021/05/20 06:30:07;;;;;;;2.75;1.75;;;461.20;2380.80;;;;;;5054347;28;20036;-72
2021/05/20 06:32:33;;;;;;;3.75;2.22;;;486.40;2380.80;;;;;;5054034;28;20486;-72
2021/05/20 06:34:58;;;;;;;3.88;2.10;;;486.60;2380.80;;;;;;5054332;28;20021;-72
2021/05/20 06:37:24;;;;;;;3.72;2.00;;;486.70;2380.80;;;;;;5054073;28;20112;-72
2021/05/20 06:39:50;;;;;;;3.38;2.00;;;486.70;2380.80;;;;;;5054232;28;20021;-71
2021/05/20 06:42:17;;;;;;;2.92;1.70;;;486.90;2380.80;;;;;;5054009;28;20498;-71
2021/05/20 06:44:43;;;;;;;3.95;1.70;;;486.80;2380.80;;;;;;5054128;28;20390;-72
2021/05/20 06:47:09;;;;;;;2.85;1.90;;;486.60;2380.80;;;;;;5053930;28;20024;-73
2021/05/20 06:49:35;;;;;;;5.60;2.00;;;461.70;2380.80;;;;;;5054190;28;20025;-73
2021/05/20 06:52:01;;;;;;;3.30;2.03;;;461.40;2380.80;;;;;;5053608;28;20436;-73
2021/05/20 06:54:26;;;;;;;4.45;2.10;;;461.10;2380.80;;;;;;5053714;28;20037;-71
2021/05/20 06:57:02;;;;;;;4.43;1.90;;;436.10;2355.20;;;;;;5049487;28;20029;-71
2021/05/20 07:02:12;;;;;;;4.07;2.20;;;435.70;2355.20;;;;;;5039717;28;20079;-71
2021/05/20 07:04:37;;;;;;;3.33;2.13;;;435.40;2355.20;;;;;;5053580;28;20395;-72
2021/05/20 07:07:03;;;;;;;3.72;2.50;;;435.40;2355.20;;;;;;5053299;28;20045;-73
2021/05/20 07:09:32;;;;;;;4.03;2.28;;;435.50;2355.20;;;;;;5043913;28;20033;-73
2021/05/20 07:11:58;;;;;;;5.22;2.88;;;435.60;2355.20;;;;;;5037702;28;20104;-72
2021/05/20 07:14:25;;;;;;;4.90;2.45;;;435.90;2355.20;;;;;;5028195;28;20563;-67
2021/05/20 07:16:51;;;;;;;8.27;4.13;;;460.90;2380.80;;;;;;5053165;28;20024;-70
2021/05/20 07:19:17;;;;;;;8.07;3.90;;;461.50;2380.80;;;;;;5052977;28;20450;-68
2021/05/20 07:21:43;;;;;;;4.50;2.60;;;486.60;2380.80;;;;;;5053449;28;20396;-69
2021/05/20 07:24:09;;;;;;;3.83;2.20;;;486.80;2380.80;;;;;;5049178;28;20021;-68
2021/05/20 07:26:35;;;;;;;3.58;1.98;;;487.00;2380.80;;;;;;5035303;28;20033;-68
2021/05/20 07:29:03;;;;;;;3.10;2.00;;;512.10;2380.80;;;;;;5037350;28;20491;-71
2021/05/20 07:31:29;;;;;;;3.88;2.08;;;512.20;2380.80;;;;;;5045777;28;20029;-71
2021/05/20 07:33:55;;;;;;;5.10;2.20;;;512.00;2380.80;;;;;;5033447;28;20800;-69
2021/05/20 07:36:22;;;;;;;3.70;1.88;;;487.30;2380.80;;;;;;5035398;28;20096;-70
2021/05/20 07:38:47;;;;;;;2.72;1.60;;;487.20;2380.80;;;;;;5034652;28;20029;-71
2021/05/20 07:41:13;;;;;;;2.92;1.50;;;487.20;2380.80;;;;;;5036066;28;20428;-69
2021/05/20 07:43:39;;;;;;;2.50;1.40;;;487.10;2380.80;;;;;;5034266;28;20022;-69
2021/05/20 07:46:05;;;;;;;2.72;1.70;;;487.10;2380.80;;;;;;5039655;28;20021;-69
2021/05/20 07:48:33;;;;;;;2.92;1.60;;;487.10;2380.80;;;;;;5038000;28;20021;-75
2021/05/20 07:51:04;;;;;;;2.80;1.60;;;487.30;2380.80;;;;;;5034795;28;20025;-69
2021/05/20 07:53:30;;;;;;;3.30;1.50;;;512.30;2380.80;;;;;;5042142;28;20032;-74
2021/05/20 07:55:56;;;;;;;4.15;1.80;;;512.40;2380.80;;;;;;5052360;28;20083;-69
2021/05/20 07:58:23;;;;;;;4.28;1.60;;;512.50;2380.80;;;;;;5051518;28;20035;-70
2021/05/20 08:00:49;;;;;;;3.25;1.58;;;512.70;2380.80;;;;;;5033336;28;20025;-75
2021/05/20 08:03:36;;;;;;;3.90;1.65;;;512.90;2380.80;;;;;;5033244;28;20013;-75
2021/05/20 08:11:15;;;;;;;2.47;1.50;;;538.40;2406.40;;;;;;5034876;28;20032;-69
2021/05/20 08:13:41;;;;;;;2.38;1.40;;;538.50;2406.40;;;;;;5034703;28;20408;-76
2021/05/20 08:16:07;;;;;;;3.50;1.58;;;538.50;2406.40;;;;;;5032853;28;20032;-71
2021/05/20 08:18:34;;;;;;;5.60;1.92;;;538.50;2355.20;;;;;;5032897;28;20025;-74
2021/05/20 08:21:01;;;;;;;2.42;1.40;;;563.60;2355.20;;;;;;5040432;28;20034;-75
2021/05/20 08:23:27;;;;;;;2.38;1.50;;;563.70;2329.60;;;;;;5034760;28;20472;-72
2021/05/20 08:25:53;;;;;;;2.83;1.50;;;564.00;2304.00;;;;;;5047514;28;20075;-71
2021/05/20 08:28:19;;;;;;;5.15;1.58;;;563.90;2227.20;;;;;;5050641;28;20020;-71
2021/05/20 08:30:45;;;;;;;2.03;1.20;;;564.10;2252.80;;;;;;5046638;28;20021;-75
2021/05/20 08:33:11;;;;;;;2.15;1.10;;;564.10;2176.00;;;;;;5052040;28;20029;-71
2021/05/20 08:35:37;;;;;;;2.95;1.50;;;589.00;2124.80;;;;;;5052775;28;20498;-74
2021/05/20 08:38:04;;;;;;;2.60;1.20;;;564.10;2099.20;;;;;;5052000;28;20028;-77
2021/05/20 08:40:30;;;;;;;1.98;1.20;;;564.10;2073.60;;;;;;5051819;28;20445;-75
2021/05/20 08:42:56;;;;;;;3.03;1.40;;;564.10;2099.20;;;;;;5051270;28;20037;-72
2021/05/20 08:45:31;;;;;;;2.53;1.35;;;563.60;2124.80;;;;;;5049439;28;20036;-73
2021/05/20 08:47:58;;;;;;;2.08;1.30;;;563.40;2099.20;;;;;;5041340;28;20021;-74
2021/05/20 08:50:26;;;;;;;2.38;1.10;;;563.30;2124.80;;;;;;5035273;28;20029;-77
2021/05/20 08:52:52;;;;;;;1.90;1.30;;;563.80;2150.40;;;;;;5055041;28;20045;-71
2021/05/20 08:55:21;;;;;;;2.72;1.30;;;564.10;2150.40;;;;;;5055307;28;20021;-72
2021/05/20 08:57:47;;;;;;;2.83;1.23;;;564.00;2073.60;;;;;;5055520;28;20041;-72
2021/05/20 09:00:20;;;;;;;2.67;1.40;;;563.70;2099.20;;;;;;5055147;28;20044;-72
2021/05/20 09:02:47;;;;;;;1.98;1.20;;;538.50;2099.20;;;;;;5054004;28;20044;-74
2021/05/20 09:05:16;;;;;;;2.90;1.50;;;537.90;2124.80;;;;;;5055086;28;20017;-72
2021/05/20 09:07:44;;;;;;;2.88;1.40;;;512.90;2176.00;;;;;;5055218;28;20392;-72
2021/05/20 09:10:17;;;;;;;4.65;1.90;;;512.60;2227.20;;;;;;5055037;28;20017;-71
2021/05/20 09:12:43;;;;;;;2.08;1.45;;;512.80;2227.20;;;;;;5053416;28;20039;-72
2021/05/20 09:15:27;;;;;;;3.47;1.50;;;537.80;2252.80;;;;;;5054368;28;20479;-71
2021/05/20 09:17:54;;;;;;;2.30;1.30;;;538.00;2201.60;;;;;;5042007;28;20033;-76
2021/05/20 09:20:22;;;;;;;2.53;1.30;;;537.60;2099.20;;;;;;5045607;28;20427;-76
2021/05/20 09:23:35;;;;;;;2.97;1.40;;;512.90;2048.00;;;;;;5054864;28;20498;-75
2021/05/20 09:26:08;;;;;;;3.47;1.90;;;512.90;2099.20;;;;;;5033746;28;20464;-76
2021/05/20 09:28:43;;;;;;;2.80;1.70;;;512.70;2201.60;;;;;;5054666;28;20028;-72
2021/05/20 09:31:14;;;;;;;2.38;1.20;;;512.40;2227.20;;;;;;5052898;28;20021;-73
2021/05/20 09:33:53;;;;;;;2.25;1.30;;;512.40;2099.20;;;;;;5054575;28;20026;-76
2021/05/20 09:36:23;;;;;;;2.15;1.30;;;512.10;2099.20;;;;;;5054979;28;20359;-77
2021/05/20 09:38:49;;;;;;;2.90;1.35;;;512.10;2099.20;;;;;;5037333;28;20395;-72
2021/05/20 09:41:19;;;;;;;1.75;1.20;;;512.40;2124.80;;;;;;5037313;28;20029;-72
2021/05/20 09:43:46;;;;;;;1.90;1.20;;;512.70;2099.20;;;;;;5036336;28;20022;-72
2021/05/20 09:46:16;;;;;;;2.20;1.30;;;537.90;2073.60;;;;;;5035400;28;20029;-72
2021/05/20 09:48:45;;;;;;;1.90;1.38;;;538.30;2022.40;;;;;;5035150;28;20033;-72
2021/05/20 09:51:23;;;;;;;3.33;1.65;;;538.30;2022.40;;;;;;5034629;28;20033;-72
2021/05/20 09:53:52;;;;;;;2.60;1.70;;;563.50;2073.60;;;;;;5034722;28;20411;-72
2021/05/20 09:56:38;;;;;;;2.78;1.67;;;563.40;2124.80;;;;;;5038398;28;20072;-71
2021/05/20 09:59:04;;;;;;;2.97;1.77;;;563.20;2124.80;;;;;;5038117;28;20108;-72
2021/05/20 10:01:30;;;;;;;2.88;1.67;;;538.30;2099.20;;;;;;5017517;28;20532;-71
2021/05/20 10:03:57;;;;;;;2.85;1.80;;;538.00;2124.80;;;;;;5035402;28;20468;-71
2021/05/20 10:06:40;;;;;;;2.70;1.80;;;512.90;2150.40;;;;;;5035095;28;20621;-72
2021/05/20 10:09:09;;;;;;;2.75;1.60;;;512.40;2176.00;;;;;;5034391;28;20018;-70
2021/05/20 10:11:35;;;;;;;2.65;1.63;;;487.00;2355.20;;;;;;5042961;28;20029;-70
2021/05/20 10:14:05;;;;;;;2.42;1.50;;;461.00;2380.80;;;;;;5035653;28;20033;-72
2021/05/20 10:16:33;;;;;;;2.60;1.52;;;460.90;2380.80;;;;;;5044839;28;20263;-70
2021/05/20 10:18:59;;;;;;;2.22;1.48;;;460.90;2380.80;;;;;;5043011;28;20083;-70
2021/05/20 10:21:26;;;;;;;2.42;1.45;;;460.90;2380.80;;;;;;5040817;28;20029;-72
2021/05/20 10:23:52;;;;;;;2.65;1.58;;;461.10;2380.80;;;;;;5048326;28;20091;-70
2021/05/20 10:26:18;;;;;;;2.17;1.38;;;461.30;2380.80;;;;;;5040326;28;20384;-75
2021/05/20 10:28:44;;;;;;;2.35;1.50;;;461.70;2380.80;;;;;;5044024;28;20032;-72
2021/05/20 10:31:10;;;;;;;2.40;1.35;;;486.50;2380.80;;;;;;5041692;28;20040;-80
2021/05/20 10:33:36;;;;;;;3.50;1.20;;;487.00;2380.80;;;;;;5045849;28;20487;-76
2021/05/20 10:36:02;;;;;;;1.83;1.27;;;512.30;2380.80;;;;;;5052758;28;20112;-72
2021/05/20 10:38:29;;;;;;;2.85;1.40;;;537.60;2406.40;;;;;;5036245;28;20476;-71
2021/05/20 10:41:20;;;;;;;2.40;1.40;;;538.10;2406.40;;;;;;5052566;28;20037;-73
2021/05/20 10:43:48;;;;;;;2.45;1.60;;;563.40;2432.00;;;;;;5051442;28;20029;-70
2021/05/20 10:46:15;;;;;;;2.70;1.70;;;564.00;2406.40;;;;;;5043799;28;20033;-74
2021/05/20 10:48:58;;;;;;;2.45;1.50;;;564.10;2380.80;;;;;;5035661;28;20487;-68
2021/05/20 10:51:26;;;;;;;2.30;1.40;;;563.90;2355.20;;;;;;5035462;28;20132;-70
2021/05/20 10:53:56;;;;;;;2.75;1.30;;;563.20;2355.20;;;;;;5049681;28;20450;-71
2021/05/20 10:56:21;;;;;;;2.15;1.30;;;512.90;2355.20;;;;;;5043134;28;20033;-71
2021/05/20 10:58:47;;;;;;;4.65;1.70;;;512.10;2380.80;;;;;;5035213;28;20094;-72
2021/05/20 11:01:25;;;;;;;3.33;1.60;;;487.10;2380.80;;;;;;5034151;28;20057;-71
2021/05/20 11:03:54;;;;;;;4.20;1.83;;;486.80;2380.80;;;;;;5036151;28;20495;-71
2021/05/20 11:06:45;;;;;;;2.45;1.20;;;486.70;2380.80;;;;;;5036029;28;20044;-71
2021/05/20 11:09:12;;;;;;;1.83;1.17;;;486.80;2380.80;;;;;;5035098;28;20029;-74
2021/05/20 11:11:38;;;;;;;5.35;1.77;;;486.80;2380.80;;;;;;5035755;28;20403;-70
2021/05/20 11:14:26;;;;;;;11.65;3.30;;;487.00;2380.80;;;;;;5038198;28;20017;-73
2021/05/20 11:16:53;;;;;;;5.45;1.98;;;487.20;2380.80;;;;;;5053043;28;20040;-72
2021/05/20 11:19:28;;;;;;;10.52;3.13;;;512.20;2380.80;;;;;;5050824;28;20395;-71
2021/05/20 11:22:01;;;;;;;2.33;1.23;;;512.40;2380.80;;;;;;5034066;28;20025;-70
2021/05/20 11:24:35;;;;;;;2.53;1.23;;;512.10;2380.80;;;;;;5035535;28;20110;-71
2021/05/20 11:27:05;;;;;;;3.92;1.70;;;487.00;2380.80;;;;;;5033396;28;20018;-71
2021/05/20 11:29:39;;;;;;;3.43;1.27;;;486.50;2380.80;;;;;;5033935;28;20036;-71
2021/05/20 11:32:28;;;;;;;2.10;1.23;;;461.40;2380.80;;;;;;5038139;28;20390;-75
2021/05/20 11:37:33;;;;;;;3.03;1.30;;;461.10;2380.80;;;;;;5052383;28;20017;-71
2021/05/20 11:40:00;;;;;;;2.15;1.30;;;461.20;2380.80;;;;;;5052786;28;20032;-70
2021/05/20 11:42:32;;;;;;;2.83;1.30;;;461.10;2380.80;;;;;;5052933;28;20029;-70
2021/05/20 11:44:59;;;;;;;2.20;1.40;;;461.00;2380.80;;;;;;5052455;28;20103;-72
2021/05/20 11:47:25;;;;;;;2.35;1.50;;;460.90;2380.80;;;;;;5033300;28;20060;-73
2021/05/20 11:49:52;;;;;;;4.15;1.40;;;460.80;2380.80;;;;;;5033814;28;20063;-69
2021/05/20 11:52:19;;;;;;;2.42;1.50;;;461.10;2380.80;;;;;;5032830;28;20121;-71
2021/05/20 11:54:49;;;;;;;2.50;1.40;;;461.40;2380.80;;;;;;5035330;28;20105;-71
2021/05/20 11:57:16;;;;;;;2.80;1.52;;;461.60;2380.80;;;;;;5052635;28;20099;-70
2021/05/20 11:59:47;;;;;;;1.95;1.35;;;461.60;2380.80;;;;;;5052788;28;20035;-69
2021/05/20 12:02:23;;;;;;;2.35;1.30;;;461.30;2380.80;;;;;;5021403;28;20025;-70
2021/05/20 12:05:01;;;;;;;1.85;1.20;;;461.00;2380.80;;;;;;5052428;28;20079;-74
2021/05/20 12:07:28;;;;;;;3.47;1.30;;;461.10;2380.80;;;;;;5040091;28;20484;-70
2021/05/20 12:09:55;;;;;;;2.45;1.50;;;461.70;2380.80;;;;;;5052382;28;20472;-76
2021/05/20 12:12:22;;;;;;;2.00;1.30;;;486.60;2380.80;;;;;;5034068;28;20025;-80
2021/05/20 12:14:49;;;;;;;2.35;1.40;;;486.90;2380.80;;;;;;5052560;28;20025;-79
2021/05/20 12:17:21;;;;;;;2.08;1.20;;;487.30;2380.80;;;;;;5051951;28;20020;-73
2021/05/20 12:19:49;;;;;;;5.07;2.03;;;487.30;2380.80;;;;;;5051681;28;20029;-69
2021/05/20 12:22:16;;;;;;;2.25;1.40;;;487.20;2380.80;;;;;;5041950;28;20029;-70
2021/05/20 12:24:48;;;;;;;1.40;1.10;;;487.10;2380.80;;;;;;5032220;28;20399;-70
2021/05/20 12:27:16;;;;;;;1.52;1.02;;;487.00;2380.80;;;;;;5031755;28;20018;-70
2021/05/20 12:29:46;;;;;;;2.47;1.10;;;486.70;2380.80;;;;;;5035762;28;20056;-71
2021/05/20 12:32:31;;;;;;;1.15;1.05;;;486.50;2380.80;;;;;;5032701;28;20021;-74